sensor_id;sensor_type;location;lat;lon;timestamp;P1;durP1;ratioP1;P2;durP2;ratioP2
4375;SDS011;2202;50.866;12.750;2024-03-25T00:01:45;3.23;;;2.90;;
4375;SDS011;2202;50.866;12.750;2024-03-25T00:04:12;4.20;;;3.80;;
4375;SDS011;2202;50.866;12.750;2024-03-25T00:06:38;8.13;;;3.43;;
4375;SDS011;2202;50.866;12.750;2024-03-25T00:09:04;5.23;;;3.33;;
4375;SDS011;2202;50.866;12.750;2024-03-25T00:11:38;6.20;;;3.50;;
4375;SDS011;2202;50.866;12.750;2024-03-25T00:14:04;4.43;;;3.70;;
4375;SDS011;2202;50.866;12.750;2024-03-25T00:16:31;4.30;;;3.23;;
4375;SDS011;2202;50.866;12.750;2024-03-25T00:18:57;3.60;;;3.13;;
4375;SDS011;2202;50.866;12.750;2024-03-25T00:21:25;3.60;;;3.10;;
4375;SDS011;2202;50.866;12.750;2024-03-25T00:23:51;3.70;;;3.40;;
4375;SDS011;2202;50.866;12.750;2024-03-25T00:26:18;4.13;;;3.60;;
4375;SDS011;2202;50.866;12.750;2024-03-25T00:28:43;5.33;;;3.50;;
4375;SDS011;2202;50.866;12.750;2024-03-25T00:31:10;3.50;;;3.20;;
4375;SDS011;2202;50.866;12.750;2024-03-25T00:33:36;3.70;;;2.70;;
4375;SDS011;2202;50.866;12.750;2024-03-25T00:36:03;3.37;;;2.90;;
4375;SDS011;2202;50.866;12.750;2024-03-25T00:38:30;5.30;;;3.70;;
4375;SDS011;2202;50.866;12.750;2024-03-25T00:40:57;3.53;;;3.00;;
4375;SDS011;2202;50.866;12.750;2024-03-25T00:43:23;6.50;;;3.80;;
4375;SDS011;2202;50.866;12.750;2024-03-25T00:45:50;5.00;;;4.33;;
4375;SDS011;2202;50.866;12.750;2024-03-25T00:48:16;5.37;;;3.23;;
4375;SDS011;2202;50.866;12.750;2024-03-25T00:50:42;5.73;;;3.43;;
4375;SDS011;2202;50.866;12.750;2024-03-25T00:53:08;4.67;;;3.63;;
4375;SDS011;2202;50.866;12.750;2024-03-25T00:55:36;2.93;;;2.63;;
4375;SDS011;2202;50.866;12.750;2024-03-25T00:58:02;3.60;;;2.87;;
4375;SDS011;2202;50.866;12.750;2024-03-25T01:00:29;3.17;;;2.87;;
4375;SDS011;2202;50.866;12.750;2024-03-25T01:02:55;5.70;;;3.50;;
4375;SDS011;2202;50.866;12.750;2024-03-25T01:05:22;4.27;;;3.13;;
4375;SDS011;2202;50.866;12.750;2024-03-25T01:07:48;3.67;;;3.30;;
4375;SDS011;2202;50.866;12.750;2024-03-25T01:10:15;5.17;;;3.47;;
4375;SDS011;2202;50.866;12.750;2024-03-25T01:12:42;5.57;;;3.50;;
4375;SDS011;2202;50.866;12.750;2024-03-25T01:15:09;3.63;;;3.23;;
4375;SDS011;2202;50.866;12.750;2024-03-25T01:17:35;3.40;;;2.90;;
4375;SDS011;2202;50.866;12.750;2024-03-25T01:20:02;4.50;;;3.57;;
4375;SDS011;2202;50.866;12.750;2024-03-25T01:22:29;6.50;;;3.40;;
4375;SDS011;2202;50.866;12.750;2024-03-25T01:24:56;6.37;;;4.00;;
4375;SDS011;2202;50.866;12.750;2024-03-25T01:27:22;5.47;;;2.90;;
4375;SDS011;2202;50.866;12.750;2024-03-25T01:29:50;3.30;;;3.00;;
4375;SDS011;2202;50.866;12.750;2024-03-25T01:32:16;7.77;;;4.07;;
4375;SDS011;2202;50.866;12.750;2024-03-25T01:34:43;4.10;;;3.10;;
4375;SDS011;2202;50.866;12.750;2024-03-25T01:37:08;3.43;;;3.13;;
4375;SDS011;2202;50.866;12.750;2024-03-25T01:39:35;4.07;;;3.60;;
4375;SDS011;2202;50.866;12.750;2024-03-25T01:42:02;4.67;;;2.97;;
4375;SDS011;2202;50.866;12.750;2024-03-25T01:44:29;3.83;;;3.30;;
4375;SDS011;2202;50.866;12.750;2024-03-25T01:46:56;3.90;;;3.03;;
4375;SDS011;2202;50.866;12.750;2024-03-25T01:49:23;4.30;;;3.90;;
4375;SDS011;2202;50.866;12.750;2024-03-25T01:51:49;3.27;;;2.97;;
4375;SDS011;2202;50.866;12.750;2024-03-25T01:54:17;4.80;;;2.93;;
4375;SDS011;2202;50.866;12.750;2024-03-25T01:56:44;5.13;;;2.63;;
4375;SDS011;2202;50.866;12.750;2024-03-25T01:59:11;3.90;;;2.90;;
4375;SDS011;2202;50.866;12.750;2024-03-25T02:01:38;4.00;;;3.30;;
4375;SDS011;2202;50.866;12.750;2024-03-25T02:04:07;3.97;;;2.97;;
4375;SDS011;2202;50.866;12.750;2024-03-25T02:06:33;2.97;;;2.73;;
4375;SDS011;2202;50.866;12.750;2024-03-25T02:09:02;3.60;;;2.77;;
4375;SDS011;2202;50.866;12.750;2024-03-25T02:11:29;7.20;;;3.23;;
4375;SDS011;2202;50.866;12.750;2024-03-25T02:13:56;3.60;;;3.13;;
4375;SDS011;2202;50.866;12.750;2024-03-25T02:16:22;3.47;;;3.13;;
4375;SDS011;2202;50.866;12.750;2024-03-25T02:18:50;4.90;;;3.13;;
4375;SDS011;2202;50.866;12.750;2024-03-25T02:21:17;6.30;;;3.97;;
4375;SDS011;2202;50.866;12.750;2024-03-25T02:23:44;4.50;;;2.80;;
4375;SDS011;2202;50.866;12.750;2024-03-25T02:26:13;7.90;;;3.23;;
4375;SDS011;2202;50.866;12.750;2024-03-25T02:28:40;3.13;;;2.83;;
4375;SDS011;2202;50.866;12.750;2024-03-25T02:31:06;2.80;;;2.50;;
4375;SDS011;2202;50.866;12.750;2024-03-25T02:33:32;3.63;;;2.80;;
4375;SDS011;2202;50.866;12.750;2024-03-25T02:35:58;3.27;;;2.90;;
4375;SDS011;2202;50.866;12.750;2024-03-25T02:38:25;4.37;;;3.13;;
4375;SDS011;2202;50.866;12.750;2024-03-25T02:40:51;5.20;;;3.00;;
4375;SDS011;2202;50.866;12.750;2024-03-25T02:43:19;5.07;;;3.20;;
4375;SDS011;2202;50.866;12.750;2024-03-25T02:45:46;4.13;;;2.53;;
4375;SDS011;2202;50.866;12.750;2024-03-25T02:48:13;3.43;;;2.90;;
4375;SDS011;2202;50.866;12.750;2024-03-25T02:50:39;3.80;;;2.60;;
4375;SDS011;2202;50.866;12.750;2024-03-25T02:53:05;4.83;;;3.27;;
4375;SDS011;2202;50.866;12.750;2024-03-25T02:55:31;9.13;;;3.10;;
4375;SDS011;2202;50.866;12.750;2024-03-25T02:57:58;4.57;;;3.30;;
4375;SDS011;2202;50.866;12.750;2024-03-25T03:00:25;4.00;;;2.67;;
4375;SDS011;2202;50.866;12.750;2024-03-25T03:02:52;4.50;;;3.77;;
4375;SDS011;2202;50.866;12.750;2024-03-25T03:05:18;4.03;;;2.40;;
4375;SDS011;2202;50.866;12.750;2024-03-25T03:07:44;5.20;;;3.57;;
4375;SDS011;2202;50.866;12.750;2024-03-25T03:10:10;5.23;;;3.30;;
4375;SDS011;2202;50.866;12.750;2024-03-25T03:12:37;3.13;;;2.87;;
4375;SDS011;2202;50.866;12.750;2024-03-25T03:15:03;5.73;;;3.30;;
4375;SDS011;2202;50.866;12.750;2024-03-25T03:17:32;7.00;;;4.00;;
4375;SDS011;2202;50.866;12.750;2024-03-25T03:19:58;3.47;;;3.17;;
4375;SDS011;2202;50.866;12.750;2024-03-25T03:22:24;4.60;;;3.80;;
4375;SDS011;2202;50.866;12.750;2024-03-25T03:24:50;4.53;;;3.80;;
4375;SDS011;2202;50.866;12.750;2024-03-25T03:27:17;7.50;;;3.80;;
4375;SDS011;2202;50.866;12.750;2024-03-25T03:29:43;5.77;;;3.90;;
4375;SDS011;2202;50.866;12.750;2024-03-25T03:32:09;7.20;;;3.50;;
4375;SDS011;2202;50.866;12.750;2024-03-25T03:34:37;7.13;;;4.10;;
4375;SDS011;2202;50.866;12.750;2024-03-25T03:37:03;3.70;;;3.23;;
4375;SDS011;2202;50.866;12.750;2024-03-25T03:39:29;4.17;;;3.67;;
4375;SDS011;2202;50.866;12.750;2024-03-25T03:41:56;5.23;;;3.73;;
4375;SDS011;2202;50.866;12.750;2024-03-25T03:44:22;12.33;;;4.30;;
4375;SDS011;2202;50.866;12.750;2024-03-25T03:46:48;5.97;;;3.43;;
4375;SDS011;2202;50.866;12.750;2024-03-25T03:49:14;4.77;;;3.70;;
4375;SDS011;2202;50.866;12.750;2024-03-25T03:51:42;8.00;;;3.93;;
4375;SDS011;2202;50.866;12.750;2024-03-25T03:54:08;4.40;;;3.03;;
4375;SDS011;2202;50.866;12.750;2024-03-25T03:56:35;10.70;;;3.50;;
4375;SDS011;2202;50.866;12.750;2024-03-25T03:59:00;6.23;;;3.77;;
4375;SDS011;2202;50.866;12.750;2024-03-25T04:01:27;5.83;;;3.40;;
4375;SDS011;2202;50.866;12.750;2024-03-25T04:03:53;6.00;;;3.90;;
4375;SDS011;2202;50.866;12.750;2024-03-25T04:06:20;5.50;;;3.63;;
4375;SDS011;2202;50.866;12.750;2024-03-25T04:08:47;7.53;;;3.83;;
4375;SDS011;2202;50.866;12.750;2024-03-25T04:11:14;9.30;;;3.90;;
4375;SDS011;2202;50.866;12.750;2024-03-25T04:13:40;5.80;;;4.13;;
4375;SDS011;2202;50.866;12.750;2024-03-25T04:16:07;6.90;;;4.30;;
4375;SDS011;2202;50.866;12.750;2024-03-25T04:18:34;5.70;;;4.10;;
4375;SDS011;2202;50.866;12.750;2024-03-25T04:21:01;5.20;;;4.57;;
4375;SDS011;2202;50.866;12.750;2024-03-25T04:23:27;5.83;;;3.90;;
4375;SDS011;2202;50.866;12.750;2024-03-25T04:25:55;5.63;;;3.97;;
4375;SDS011;2202;50.866;12.750;2024-03-25T04:28:25;6.50;;;4.93;;
4375;SDS011;2202;50.866;12.750;2024-03-25T04:30:52;9.33;;;3.97;;
4375;SDS011;2202;50.866;12.750;2024-03-25T04:33:18;7.00;;;3.97;;
4375;SDS011;2202;50.866;12.750;2024-03-25T04:35:45;8.50;;;4.50;;
4375;SDS011;2202;50.866;12.750;2024-03-25T04:38:12;7.30;;;3.83;;
4375;SDS011;2202;50.866;12.750;2024-03-25T04:40:38;4.90;;;3.77;;
4375;SDS011;2202;50.866;12.750;2024-03-25T04:43:05;11.77;;;4.77;;
4375;SDS011;2202;50.866;12.750;2024-03-25T04:45:31;6.90;;;4.27;;
4375;SDS011;2202;50.866;12.750;2024-03-25T04:47:57;9.40;;;3.80;;
4375;SDS011;2202;50.866;12.750;2024-03-25T04:50:23;5.37;;;4.57;;
4375;SDS011;2202;50.866;12.750;2024-03-25T04:52:49;8.57;;;4.40;;
4375;SDS011;2202;50.866;12.750;2024-03-25T04:55:15;7.70;;;5.00;;
4375;SDS011;2202;50.866;12.750;2024-03-25T04:57:41;6.67;;;3.80;;
4375;SDS011;2202;50.866;12.750;2024-03-25T05:00:09;11.93;;;4.70;;
4375;SDS011;2202;50.866;12.750;2024-03-25T05:02:36;11.10;;;4.00;;
4375;SDS011;2202;50.866;12.750;2024-03-25T05:05:02;6.70;;;5.90;;
4375;SDS011;2202;50.866;12.750;2024-03-25T05:07:28;5.70;;;4.33;;
4375;SDS011;2202;50.866;12.750;2024-03-25T05:09:54;5.70;;;4.00;;
4375;SDS011;2202;50.866;12.750;2024-03-25T05:12:19;5.13;;;4.17;;
4375;SDS011;2202;50.866;12.750;2024-03-25T05:14:45;4.97;;;4.13;;
4375;SDS011;2202;50.866;12.750;2024-03-25T05:17:12;9.97;;;4.13;;
4375;SDS011;2202;50.866;12.750;2024-03-25T05:19:38;7.43;;;4.93;;
4375;SDS011;2202;50.866;12.750;2024-03-25T05:22:04;8.30;;;4.33;;
4375;SDS011;2202;50.866;12.750;2024-03-25T05:24:30;7.17;;;4.70;;
4375;SDS011;2202;50.866;12.750;2024-03-25T05:26:56;7.90;;;3.90;;
4375;SDS011;2202;50.866;12.750;2024-03-25T05:29:22;4.30;;;3.90;;
4375;SDS011;2202;50.866;12.750;2024-03-25T05:31:55;4.90;;;3.97;;
4375;SDS011;2202;50.866;12.750;2024-03-25T05:34:23;6.77;;;4.77;;
4375;SDS011;2202;50.866;12.750;2024-03-25T05:36:49;6.40;;;4.30;;
4375;SDS011;2202;50.866;12.750;2024-03-25T05:39:15;6.80;;;4.47;;
4375;SDS011;2202;50.866;12.750;2024-03-25T05:41:41;9.17;;;4.33;;
4375;SDS011;2202;50.866;12.750;2024-03-25T05:44:07;6.23;;;4.50;;
4375;SDS011;2202;50.866;12.750;2024-03-25T05:46:33;4.50;;;4.10;;
4375;SDS011;2202;50.866;12.750;2024-03-25T05:49:00;3.33;;;3.03;;
4375;SDS011;2202;50.866;12.750;2024-03-25T05:51:28;8.03;;;4.53;;
4375;SDS011;2202;50.866;12.750;2024-03-25T05:53:54;5.07;;;4.57;;
4375;SDS011;2202;50.866;12.750;2024-03-25T05:56:20;10.03;;;5.43;;
4375;SDS011;2202;50.866;12.750;2024-03-25T05:58:46;10.10;;;5.63;;
4375;SDS011;2202;50.866;12.750;2024-03-25T06:01:12;8.97;;;4.90;;
4375;SDS011;2202;50.866;12.750;2024-03-25T06:03:38;7.20;;;5.13;;
4375;SDS011;2202;50.866;12.750;2024-03-25T06:06:03;8.87;;;5.00;;
4375;SDS011;2202;50.866;12.750;2024-03-25T06:08:31;6.87;;;5.50;;
4375;SDS011;2202;50.866;12.750;2024-03-25T06:11:00;5.20;;;3.87;;
4375;SDS011;2202;50.866;12.750;2024-03-25T06:13:26;8.70;;;4.90;;
4375;SDS011;2202;50.866;12.750;2024-03-25T06:15:52;6.73;;;3.70;;
4375;SDS011;2202;50.866;12.750;2024-03-25T06:18:18;6.13;;;4.20;;
4375;SDS011;2202;50.866;12.750;2024-03-25T06:20:44;13.33;;;4.90;;
4375;SDS011;2202;50.866;12.750;2024-03-25T06:23:10;4.90;;;4.30;;
4375;SDS011;2202;50.866;12.750;2024-03-25T06:25:37;6.83;;;4.33;;
4375;SDS011;2202;50.866;12.750;2024-03-25T06:28:03;10.83;;;5.07;;
4375;SDS011;2202;50.866;12.750;2024-03-25T06:30:29;6.40;;;4.40;;
4375;SDS011;2202;50.866;12.750;2024-03-25T06:33:13;7.43;;;4.10;;
4375;SDS011;2202;50.866;12.750;2024-03-25T06:35:58;4.70;;;3.73;;
4375;SDS011;2202;50.866;12.750;2024-03-25T06:38:24;5.83;;;3.83;;
4375;SDS011;2202;50.866;12.750;2024-03-25T06:40:51;5.47;;;4.00;;
4375;SDS011;2202;50.866;12.750;2024-03-25T06:43:17;7.73;;;4.10;;
4375;SDS011;2202;50.866;12.750;2024-03-25T06:45:43;5.93;;;4.40;;
4375;SDS011;2202;50.866;12.750;2024-03-25T06:48:08;7.80;;;4.00;;
4375;SDS011;2202;50.866;12.750;2024-03-25T06:50:34;10.00;;;4.17;;
4375;SDS011;2202;50.866;12.750;2024-03-25T06:53:00;4.33;;;3.60;;
4375;SDS011;2202;50.866;12.750;2024-03-25T06:55:26;5.00;;;3.80;;
4375;SDS011;2202;50.866;12.750;2024-03-25T06:57:53;7.53;;;4.57;;
4375;SDS011;2202;50.866;12.750;2024-03-25T07:00:20;6.67;;;4.03;;
4375;SDS011;2202;50.866;12.750;2024-03-25T07:02:45;4.00;;;3.57;;
4375;SDS011;2202;50.866;12.750;2024-03-25T07:05:11;4.53;;;2.73;;
4375;SDS011;2202;50.866;12.750;2024-03-25T07:07:37;7.17;;;4.10;;
4375;SDS011;2202;50.866;12.750;2024-03-25T07:10:03;5.80;;;4.80;;
4375;SDS011;2202;50.866;12.750;2024-03-25T07:12:29;9.30;;;5.10;;
4375;SDS011;2202;50.866;12.750;2024-03-25T07:14:57;9.07;;;4.00;;
4375;SDS011;2202;50.866;12.750;2024-03-25T07:17:22;4.43;;;4.03;;
4375;SDS011;2202;50.866;12.750;2024-03-25T07:19:48;4.60;;;3.90;;
4375;SDS011;2202;50.866;12.750;2024-03-25T07:22:14;6.73;;;4.43;;
4375;SDS011;2202;50.866;12.750;2024-03-25T07:24:40;5.73;;;3.70;;
4375;SDS011;2202;50.866;12.750;2024-03-25T07:27:06;5.77;;;4.17;;
4375;SDS011;2202;50.866;12.750;2024-03-25T07:29:32;10.87;;;4.10;;
4375;SDS011;2202;50.866;12.750;2024-03-25T07:31:59;9.90;;;3.30;;
4375;SDS011;2202;50.866;12.750;2024-03-25T07:34:25;8.73;;;4.50;;
4375;SDS011;2202;50.866;12.750;2024-03-25T07:36:51;7.33;;;4.23;;
4375;SDS011;2202;50.866;12.750;2024-03-25T07:39:17;6.77;;;3.97;;
4375;SDS011;2202;50.866;12.750;2024-03-25T07:41:43;4.90;;;4.10;;
4375;SDS011;2202;50.866;12.750;2024-03-25T07:44:09;13.50;;;4.50;;
4375;SDS011;2202;50.866;12.750;2024-03-25T07:46:35;5.50;;;4.57;;
4375;SDS011;2202;50.866;12.750;2024-03-25T07:49:02;5.17;;;3.90;;
4375;SDS011;2202;50.866;12.750;2024-03-25T07:51:28;4.97;;;3.93;;
4375;SDS011;2202;50.866;12.750;2024-03-25T07:53:53;4.07;;;3.23;;
4375;SDS011;2202;50.866;12.750;2024-03-25T07:56:19;9.30;;;4.63;;
4375;SDS011;2202;50.866;12.750;2024-03-25T07:58:45;8.60;;;3.63;;
4375;SDS011;2202;50.866;12.750;2024-03-25T08:01:11;4.77;;;3.73;;
4375;SDS011;2202;50.866;12.750;2024-03-25T08:03:37;9.57;;;4.07;;
4375;SDS011;2202;50.866;12.750;2024-03-25T08:06:04;6.17;;;4.20;;
4375;SDS011;2202;50.866;12.750;2024-03-25T08:08:30;6.00;;;3.33;;
4375;SDS011;2202;50.866;12.750;2024-03-25T08:10:56;4.67;;;3.43;;
4375;SDS011;2202;50.866;12.750;2024-03-25T08:13:22;3.33;;;2.77;;
4375;SDS011;2202;50.866;12.750;2024-03-25T08:15:48;5.80;;;4.10;;
4375;SDS011;2202;50.866;12.750;2024-03-25T08:18:14;4.30;;;3.23;;
4375;SDS011;2202;50.866;12.750;2024-03-25T08:20:39;6.23;;;3.50;;
4375;SDS011;2202;50.866;12.750;2024-03-25T08:23:07;6.77;;;3.10;;
4375;SDS011;2202;50.866;12.750;2024-03-25T08:25:32;3.40;;;2.70;;
4375;SDS011;2202;50.866;12.750;2024-03-25T08:27:58;4.30;;;3.10;;
4375;SDS011;2202;50.866;12.750;2024-03-25T08:30:24;6.87;;;4.10;;
4375;SDS011;2202;50.866;12.750;2024-03-25T08:32:50;8.00;;;4.03;;
4375;SDS011;2202;50.866;12.750;2024-03-25T08:35:16;5.00;;;3.60;;
4375;SDS011;2202;50.866;12.750;2024-03-25T08:37:42;7.57;;;4.10;;
4375;SDS011;2202;50.866;12.750;2024-03-25T08:40:10;9.13;;;5.20;;
4375;SDS011;2202;50.866;12.750;2024-03-25T08:42:36;10.60;;;3.70;;
4375;SDS011;2202;50.866;12.750;2024-03-25T08:45:02;15.23;;;5.10;;
4375;SDS011;2202;50.866;12.750;2024-03-25T08:47:28;9.10;;;4.07;;
4375;SDS011;2202;50.866;12.750;2024-03-25T08:49:54;8.47;;;5.77;;
4375;SDS011;2202;50.866;12.750;2024-03-25T08:52:19;7.87;;;4.97;;
4375;SDS011;2202;50.866;12.750;2024-03-25T08:54:45;8.33;;;5.57;;
4375;SDS011;2202;50.866;12.750;2024-03-25T08:57:13;11.60;;;5.10;;
4375;SDS011;2202;50.866;12.750;2024-03-25T08:59:38;7.80;;;3.77;;
4375;SDS011;2202;50.866;12.750;2024-03-25T09:02:05;6.93;;;5.00;;
4375;SDS011;2202;50.866;12.750;2024-03-25T09:04:30;7.17;;;4.40;;
4375;SDS011;2202;50.866;12.750;2024-03-25T09:06:56;4.50;;;3.80;;
4375;SDS011;2202;50.866;12.750;2024-03-25T09:09:22;5.63;;;2.77;;
4375;SDS011;2202;50.866;12.750;2024-03-25T09:12:06;6.20;;;2.97;;
4375;SDS011;2202;50.866;12.750;2024-03-25T09:14:34;7.53;;;3.83;;
4375;SDS011;2202;50.866;12.750;2024-03-25T09:17:00;4.77;;;3.30;;
4375;SDS011;2202;50.866;12.750;2024-03-25T09:19:25;8.00;;;3.33;;
4375;SDS011;2202;50.866;12.750;2024-03-25T09:21:51;8.13;;;3.27;;
4375;SDS011;2202;50.866;12.750;2024-03-25T09:24:17;6.00;;;2.80;;
4375;SDS011;2202;50.866;12.750;2024-03-25T09:26:43;2.60;;;2.40;;
4375;SDS011;2202;50.866;12.750;2024-03-25T09:29:09;4.00;;;2.70;;
4375;SDS011;2202;50.866;12.750;2024-03-25T09:31:36;4.83;;;3.90;;
4375;SDS011;2202;50.866;12.750;2024-03-25T09:34:02;7.67;;;5.60;;
4375;SDS011;2202;50.866;12.750;2024-03-25T09:36:28;4.80;;;4.37;;
4375;SDS011;2202;50.866;12.750;2024-03-25T09:38:54;7.00;;;4.47;;
4375;SDS011;2202;50.866;12.750;2024-03-25T09:41:20;7.07;;;4.50;;
4375;SDS011;2202;50.866;12.750;2024-03-25T09:43:47;8.00;;;4.00;;
4375;SDS011;2202;50.866;12.750;2024-03-25T09:46:14;7.53;;;4.27;;
4375;SDS011;2202;50.866;12.750;2024-03-25T09:48:42;10.30;;;5.80;;
4375;SDS011;2202;50.866;12.750;2024-03-25T09:51:08;8.10;;;4.70;;
4375;SDS011;2202;50.866;12.750;2024-03-25T09:53:34;5.00;;;3.70;;
4375;SDS011;2202;50.866;12.750;2024-03-25T09:56:00;4.27;;;3.57;;
4375;SDS011;2202;50.866;12.750;2024-03-25T09:58:26;7.47;;;4.07;;
4375;SDS011;2202;50.866;12.750;2024-03-25T10:00:54;9.27;;;4.43;;
4375;SDS011;2202;50.866;12.750;2024-03-25T10:03:20;6.50;;;4.33;;
4375;SDS011;2202;50.866;12.750;2024-03-25T10:05:47;16.70;;;5.27;;
4375;SDS011;2202;50.866;12.750;2024-03-25T10:08:13;6.10;;;3.70;;
4375;SDS011;2202;50.866;12.750;2024-03-25T10:10:39;4.33;;;3.93;;
4375;SDS011;2202;50.866;12.750;2024-03-25T10:13:05;7.03;;;4.20;;
4375;SDS011;2202;50.866;12.750;2024-03-25T10:15:30;6.83;;;4.37;;
4375;SDS011;2202;50.866;12.750;2024-03-25T10:17:57;11.17;;;4.20;;
4375;SDS011;2202;50.866;12.750;2024-03-25T10:20:23;6.37;;;4.33;;
4375;SDS011;2202;50.866;12.750;2024-03-25T10:22:50;6.27;;;4.90;;
4375;SDS011;2202;50.866;12.750;2024-03-25T10:25:21;5.20;;;4.70;;
4375;SDS011;2202;50.866;12.750;2024-03-25T10:27:53;6.37;;;4.43;;
4375;SDS011;2202;50.866;12.750;2024-03-25T10:30:20;8.60;;;4.57;;
4375;SDS011;2202;50.866;12.750;2024-03-25T10:32:46;8.10;;;4.10;;
4375;SDS011;2202;50.866;12.750;2024-03-25T10:35:23;7.40;;;3.70;;
4375;SDS011;2202;50.866;12.750;2024-03-25T10:37:52;5.47;;;3.97;;
4375;SDS011;2202;50.866;12.750;2024-03-25T10:40:21;4.77;;;3.60;;
4375;SDS011;2202;50.866;12.750;2024-03-25T10:42:50;5.10;;;3.50;;
4375;SDS011;2202;50.866;12.750;2024-03-25T10:45:17;8.33;;;3.93;;
4375;SDS011;2202;50.866;12.750;2024-03-25T10:47:43;4.60;;;3.73;;
4375;SDS011;2202;50.866;12.750;2024-03-25T10:50:09;7.30;;;3.63;;
4375;SDS011;2202;50.866;12.750;2024-03-25T10:52:41;3.80;;;3.40;;
4375;SDS011;2202;50.866;12.750;2024-03-25T10:55:08;6.93;;;3.50;;
4375;SDS011;2202;50.866;12.750;2024-03-25T10:57:35;3.23;;;2.80;;
4375;SDS011;2202;50.866;12.750;2024-03-25T11:00:02;3.90;;;3.33;;
4375;SDS011;2202;50.866;12.750;2024-03-25T11:02:29;3.70;;;2.70;;
4375;SDS011;2202;50.866;12.750;2024-03-25T11:04:56;4.90;;;3.30;;
4375;SDS011;2202;50.866;12.750;2024-03-25T11:07:27;3.57;;;2.93;;
4375;SDS011;2202;50.866;12.750;2024-03-25T11:10:02;4.40;;;3.53;;
4375;SDS011;2202;50.866;12.750;2024-03-25T11:12:34;5.40;;;3.50;;
4375;SDS011;2202;50.866;12.750;2024-03-25T11:15:02;3.53;;;3.10;;
4375;SDS011;2202;50.866;12.750;2024-03-25T11:17:28;4.33;;;3.50;;
4375;SDS011;2202;50.866;12.750;2024-03-25T11:19:54;8.10;;;3.57;;
4375;SDS011;2202;50.866;12.750;2024-03-25T11:22:32;10.03;;;3.50;;
4375;SDS011;2202;50.866;12.750;2024-03-25T11:25:04;8.80;;;3.07;;
4375;SDS011;2202;50.866;12.750;2024-03-25T11:27:33;4.27;;;3.40;;
4375;SDS011;2202;50.866;12.750;2024-03-25T11:30:02;3.33;;;2.50;;
4375;SDS011;2202;50.866;12.750;2024-03-25T11:32:41;5.80;;;3.27;;
4375;SDS011;2202;50.866;12.750;2024-03-25T11:35:09;4.13;;;2.93;;
4375;SDS011;2202;50.866;12.750;2024-03-25T11:37:38;5.10;;;3.47;;
4375;SDS011;2202;50.866;12.750;2024-03-25T11:40:05;3.73;;;2.97;;
4375;SDS011;2202;50.866;12.750;2024-03-25T11:42:33;5.97;;;2.73;;
4375;SDS011;2202;50.866;12.750;2024-03-25T11:45:00;2.30;;;2.10;;
4375;SDS011;2202;50.866;12.750;2024-03-25T11:47:26;6.53;;;3.20;;
4375;SDS011;2202;50.866;12.750;2024-03-25T11:49:52;2.90;;;2.43;;
4375;SDS011;2202;50.866;12.750;2024-03-25T11:52:18;5.23;;;2.73;;
4375;SDS011;2202;50.866;12.750;2024-03-25T11:54:44;3.93;;;3.33;;
4375;SDS011;2202;50.866;12.750;2024-03-25T11:57:10;7.00;;;3.07;;
4375;SDS011;2202;50.866;12.750;2024-03-25T11:59:37;6.13;;;2.60;;
4375;SDS011;2202;50.866;12.750;2024-03-25T12:02:05;5.00;;;2.23;;
4375;SDS011;2202;50.866;12.750;2024-03-25T12:04:31;3.93;;;2.77;;
4375;SDS011;2202;50.866;12.750;2024-03-25T12:06:57;4.10;;;2.97;;
4375;SDS011;2202;50.866;12.750;2024-03-25T12:09:23;2.77;;;2.57;;
4375;SDS011;2202;50.866;12.750;2024-03-25T12:12:07;4.60;;;2.30;;
4375;SDS011;2202;50.866;12.750;2024-03-25T12:14:33;3.50;;;2.40;;
4375;SDS011;2202;50.866;12.750;2024-03-25T12:17:00;3.93;;;1.90;;
4375;SDS011;2202;50.866;12.750;2024-03-25T12:19:27;3.00;;;2.00;;
4375;SDS011;2202;50.866;12.750;2024-03-25T12:21:58;5.30;;;2.93;;
4375;SDS011;2202;50.866;12.750;2024-03-25T12:24:24;3.63;;;2.37;;
4375;SDS011;2202;50.866;12.750;2024-03-25T12:26:51;2.87;;;2.67;;
4375;SDS011;2202;50.866;12.750;2024-03-25T12:29:17;4.30;;;2.60;;
4375;SDS011;2202;50.866;12.750;2024-03-25T12:31:43;2.30;;;2.10;;
4375;SDS011;2202;50.866;12.750;2024-03-25T12:34:20;2.20;;;1.83;;
4375;SDS011;2202;50.866;12.750;2024-03-25T12:36:46;5.20;;;2.17;;
4375;SDS011;2202;50.866;12.750;2024-03-25T12:39:16;2.13;;;1.73;;
4375;SDS011;2202;50.866;12.750;2024-03-25T12:41:42;1.87;;;1.67;;
4375;SDS011;2202;50.866;12.750;2024-03-25T12:44:08;2.17;;;1.97;;
4375;SDS011;2202;50.866;12.750;2024-03-25T12:46:37;2.70;;;2.00;;
4375;SDS011;2202;50.866;12.750;2024-03-25T12:49:03;4.97;;;2.90;;
4375;SDS011;2202;50.866;12.750;2024-03-25T12:51:30;3.50;;;2.00;;
4375;SDS011;2202;50.866;12.750;2024-03-25T12:53:56;2.07;;;1.87;;
4375;SDS011;2202;50.866;12.750;2024-03-25T12:56:22;4.60;;;1.67;;
4375;SDS011;2202;50.866;12.750;2024-03-25T12:58:48;2.67;;;2.20;;
4375;SDS011;2202;50.866;12.750;2024-03-25T13:01:13;2.13;;;1.90;;
4375;SDS011;2202;50.866;12.750;2024-03-25T13:03:39;3.73;;;1.80;;
4375;SDS011;2202;50.866;12.750;2024-03-25T13:06:05;3.60;;;2.10;;
4375;SDS011;2202;50.866;12.750;2024-03-25T13:08:33;2.53;;;2.30;;
4375;SDS011;2202;50.866;12.750;2024-03-25T13:10:59;2.37;;;2.10;;
4375;SDS011;2202;50.866;12.750;2024-03-25T13:13:25;4.27;;;2.47;;
4375;SDS011;2202;50.866;12.750;2024-03-25T13:15:51;6.53;;;2.23;;
4375;SDS011;2202;50.866;12.750;2024-03-25T13:18:17;3.07;;;2.30;;
4375;SDS011;2202;50.866;12.750;2024-03-25T13:20:43;2.40;;;2.20;;
4375;SDS011;2202;50.866;12.750;2024-03-25T13:23:09;3.63;;;2.07;;
4375;SDS011;2202;50.866;12.750;2024-03-25T13:25:36;2.50;;;2.30;;
4375;SDS011;2202;50.866;12.750;2024-03-25T13:28:02;3.27;;;1.67;;
4375;SDS011;2202;50.866;12.750;2024-03-25T13:30:28;3.00;;;2.47;;
4375;SDS011;2202;50.866;12.750;2024-03-25T13:32:56;3.23;;;1.63;;
4375;SDS011;2202;50.866;12.750;2024-03-25T13:35:22;3.00;;;2.07;;
4375;SDS011;2202;50.866;12.750;2024-03-25T13:37:48;6.30;;;2.27;;
4375;SDS011;2202;50.866;12.750;2024-03-25T13:40:14;3.17;;;2.10;;
4375;SDS011;2202;50.866;12.750;2024-03-25T13:42:41;1.80;;;1.53;;
4375;SDS011;2202;50.866;12.750;2024-03-25T13:45:07;1.60;;;1.47;;
4375;SDS011;2202;50.866;12.750;2024-03-25T13:47:33;2.27;;;1.77;;
4375;SDS011;2202;50.866;12.750;2024-03-25T13:50:02;2.80;;;2.20;;
4375;SDS011;2202;50.866;12.750;2024-03-25T13:52:28;2.83;;;2.63;;
4375;SDS011;2202;50.866;12.750;2024-03-25T13:54:54;3.20;;;2.20;;
4375;SDS011;2202;50.866;12.750;2024-03-25T13:57:20;3.30;;;2.30;;
4375;SDS011;2202;50.866;12.750;2024-03-25T13:59:48;2.43;;;2.23;;
4375;SDS011;2202;50.866;12.750;2024-03-25T14:02:15;5.77;;;2.53;;
4375;SDS011;2202;50.866;12.750;2024-03-25T14:04:41;3.73;;;2.20;;
4375;SDS011;2202;50.866;12.750;2024-03-25T14:07:07;3.97;;;2.43;;
4375;SDS011;2202;50.866;12.750;2024-03-25T14:09:32;2.70;;;1.90;;
4375;SDS011;2202;50.866;12.750;2024-03-25T14:11:58;2.30;;;2.10;;
4375;SDS011;2202;50.866;12.750;2024-03-25T14:14:24;5.07;;;2.80;;
4375;SDS011;2202;50.866;12.750;2024-03-25T14:16:51;4.17;;;2.20;;
4375;SDS011;2202;50.866;12.750;2024-03-25T14:19:17;2.77;;;2.50;;
4375;SDS011;2202;50.866;12.750;2024-03-25T14:21:43;3.63;;;2.50;;
4375;SDS011;2202;50.866;12.750;2024-03-25T14:24:09;2.30;;;2.10;;
4375;SDS011;2202;50.866;12.750;2024-03-25T14:26:35;2.70;;;2.50;;
4375;SDS011;2202;50.866;12.750;2024-03-25T14:29:01;2.50;;;2.30;;
4375;SDS011;2202;50.866;12.750;2024-03-25T14:31:27;4.50;;;2.40;;
4375;SDS011;2202;50.866;12.750;2024-03-25T14:33:54;2.67;;;2.47;;
4375;SDS011;2202;50.866;12.750;2024-03-25T14:36:21;7.17;;;2.90;;
4375;SDS011;2202;50.866;12.750;2024-03-25T14:38:47;4.83;;;2.40;;
4375;SDS011;2202;50.866;12.750;2024-03-25T14:41:13;3.53;;;3.17;;
4375;SDS011;2202;50.866;12.750;2024-03-25T14:43:43;5.10;;;2.70;;
4375;SDS011;2202;50.866;12.750;2024-03-25T14:46:09;3.53;;;3.03;;
4375;SDS011;2202;50.866;12.750;2024-03-25T14:48:35;3.30;;;3.00;;
4375;SDS011;2202;50.866;12.750;2024-03-25T14:51:02;4.73;;;2.67;;
4375;SDS011;2202;50.866;12.750;2024-03-25T14:53:28;2.47;;;2.27;;
4375;SDS011;2202;50.866;12.750;2024-03-25T14:55:54;5.70;;;3.37;;
4375;SDS011;2202;50.866;12.750;2024-03-25T14:58:20;4.03;;;2.70;;